UMBB 070700Z 21003MPS 2200 -SHSNRA BR OVC004CB 00/00 Q1006 NOSIG RMK QBB130
QNH:(hPa/inHg/mmHg)1006 / 29.71 / 755
QFE:(hPa/inHg/mmHg)989 / 29.19 / 742
Temperature0
Dew Point0
Visibility2200
WeatherMist
Cloud CoverOVC (400);
Transition Altitude6000 ft.
Transition LevelFL80
SQUAWK